04IL weather

Schertz Aerial Service - Hudson Airport
Hudson, Illinois, United States

Public forecast

Using degrees Fahrenheit for public forecast. Weather courtesy of forecast.io.

Closest aviation weather report (METAR) to Schertz Aerial Service - Hudson Airport

Closest report is Central Illinois Regional Airport at Bloomington-Normal, 10.5 nm (19.4 km) SSE. Retrieved 2019/12/10 03:56 UTC (57 minutes ago):

KBMI 100356Z 29021G26KT 10SM OVC016 M06/M08 A2989 RMK AO2 PK WND 27027/0335 SLP127 T10561078

Closest aviation forecast (TAF) to Schertz Aerial Service - Hudson Airport

Closest forecast is Central Illinois Regional Airport at Bloomington-Normal, 10.5 nm (19.4 km) SSE. Retrieved 2019-12-10 00:22 UTC (5 hours ago):

TAF KBMI 092320Z 1000/1024 29017G28KT P6SM BKN012 BKN018 FM100330 29015G25KT P6SM FEW040 SCT250 FM101200 29012KT P6SM SCT250